Time;durP1;ratioP1;P1;durP2;ratioP2;P2;SDS_P1;SDS_P2;PMS_P1;PMS_P2;Temp;Humidity;BMP_temperature;BMP_pressure;BME280_temperature;BME280_humidity;BME280_pressure;Samples;Min_cycle;Max_cycle;Signal;HPM_P1;HPM_P2
2022/05/15 00:02:11;;;;;;;;;;;11.90;99.90;;;;;;5094051;28;19934;-80
2022/05/15 00:04:37;;;;;;;;;;;12.00;99.90;;;;;;5094628;28;19912;-80
2022/05/15 00:07:04;;;;;;;;;;;12.00;99.90;;;;;;5094489;28;20003;-80
2022/05/15 00:09:30;;;;;;;;;;;12.00;99.90;;;;;;5095385;28;19961;-79
2022/05/15 00:11:55;;;;;;;;;;;12.00;99.90;;;;;;5095261;28;19943;-79
2022/05/15 00:14:21;;;;;;;;;;;12.10;99.90;;;;;;5094615;28;19908;-78
2022/05/15 00:16:46;;;;;;;;;;;12.10;99.90;;;;;;5095192;28;19908;-79
2022/05/15 00:19:12;;;;;;;;;;;12.10;99.90;;;;;;5094519;28;19961;-79
2022/05/15 00:21:38;;;;;;;;;;;12.10;99.90;;;;;;5094899;28;20430;-79
2022/05/15 00:24:04;;;;;;;;;;;12.00;99.90;;;;;;5094727;28;20346;-78
2022/05/15 00:26:31;;;;;;;;;;;12.00;99.90;;;;;;5094738;28;20269;-78
2022/05/15 00:28:56;;;;;;;;;;;12.00;99.90;;;;;;5094934;28;20375;-78
2022/05/15 00:31:23;;;;;;;;;;;12.00;99.90;;;;;;5094407;28;19908;-78
2022/05/15 00:33:49;;;;;;;;;;;12.00;99.90;;;;;;5094435;28;20276;-79
2022/05/15 00:36:15;;;;;;;;;;;12.10;99.90;;;;;;5094574;28;20007;-79
2022/05/15 00:38:41;;;;;;;;;;;12.10;99.90;;;;;;5093610;28;20008;-79
2022/05/15 00:41:07;;;;;;;;;;;12.20;99.90;;;;;;5094353;28;19908;-78
2022/05/15 00:43:46;;;;;;;;;;;12.20;99.90;;;;;;5094718;28;19908;-79
2022/05/15 00:46:16;;;;;;;;;;;12.20;99.90;;;;;;5093837;28;20361;-78
2022/05/15 00:48:42;;;;;;;;;;;12.10;99.90;;;;;;5094338;28;20327;-79
2022/05/15 00:51:14;;;;;;;;;;;12.10;99.90;;;;;;5094247;28;19915;-78
2022/05/15 00:53:40;;;;;;;;;;;12.10;99.90;;;;;;5094615;28;20357;-78
2022/05/15 00:56:06;;;;;;;;;;;12.10;99.90;;;;;;5093882;28;19915;-77
2022/05/15 00:58:35;;;;;;;;;;;12.10;99.90;;;;;;5074046;28;19921;-78
2022/05/15 01:01:01;;;;;;;;;;;12.10;99.90;;;;;;5072902;28;20317;-79
2022/05/15 01:03:27;;;;;;;;;;;12.10;99.90;;;;;;5072206;28;19908;-79
2022/05/15 01:05:54;;;;;;;;;;;12.10;99.90;;;;;;5073524;28;19987;-79
2022/05/15 01:08:19;;;;;;;;;;;12.10;99.90;;;;;;5073373;28;19954;-78
2022/05/15 01:10:47;;;;;;;;;;;12.10;99.90;;;;;;5073590;28;20353;-79
2022/05/15 01:13:13;;;;;;;;;;;12.10;99.90;;;;;;5073237;28;19908;-78
2022/05/15 01:15:40;;;;;;;;;;;12.00;99.90;;;;;;5073531;28;19919;-79
2022/05/15 01:18:06;;;;;;;;;;;12.00;99.90;;;;;;5071686;28;19951;-77
2022/05/15 01:20:32;;;;;;;;;;;12.00;99.90;;;;;;5073450;28;19962;-78
2022/05/15 01:22:58;;;;;;;;;;;12.00;99.90;;;;;;5072284;28;20003;-78
2022/05/15 01:25:25;;;;;;;;;;;11.90;99.90;;;;;;5073062;28;20019;-78
2022/05/15 01:28:12;;;;;;;;;;;12.00;99.90;;;;;;5073523;28;19909;-78
2022/05/15 01:30:39;;;;;;;;;;;12.00;99.90;;;;;;5072787;28;19908;-78
2022/05/15 01:33:05;;;;;;;;;;;12.00;99.90;;;;;;5073442;28;20320;-76
2022/05/15 01:35:30;;;;;;;;;;;12.00;99.90;;;;;;5072942;28;19909;-78
2022/05/15 01:37:56;;;;;;;;;;;12.10;99.90;;;;;;5073208;28;19908;-79
2022/05/15 01:40:22;;;;;;;;;;;12.10;99.90;;;;;;5072657;28;19940;-78
2022/05/15 01:42:47;;;;;;;;;;;12.10;99.90;;;;;;5073284;28;20376;-79
2022/05/15 01:45:14;;;;;;;;;;;12.10;99.90;;;;;;5072701;28;19995;-78
2022/05/15 01:47:39;;;;;;;;;;;12.10;99.90;;;;;;5073142;28;19950;-79
2022/05/15 01:50:05;;;;;;;;;;;12.10;99.90;;;;;;5072686;28;19913;-79
2022/05/15 01:52:31;;;;;;;;;;;12.10;99.90;;;;;;5072796;28;19933;-80
2022/05/15 01:54:57;;;;;;;;;;;12.20;99.90;;;;;;5072886;28;20003;-79
2022/05/15 01:57:22;;;;;;;;;;;12.20;99.90;;;;;;5082927;28;20006;-79
2022/05/15 01:59:48;;;;;;;;;;;12.10;99.90;;;;;;5093337;28;20327;-79
2022/05/15 02:02:14;;;;;;;;;;;12.20;99.90;;;;;;5092795;28;19912;-79
2022/05/15 02:04:39;;;;;;;;;;;12.20;99.90;;;;;;5093133;28;20091;-79
2022/05/15 02:07:05;;;;;;;;;;;12.20;99.90;;;;;;5093253;28;19908;-79
2022/05/15 02:09:30;;;;;;;;;;;12.30;99.90;;;;;;5091926;28;20355;-79
2022/05/15 02:11:56;;;;;;;;;;;12.30;99.90;;;;;;5093090;28;19915;-79
2022/05/15 02:14:22;;;;;;;;;;;12.40;99.90;;;;;;5092069;28;19908;-79
2022/05/15 02:16:47;;;;;;;;;;;12.40;99.90;;;;;;5093148;28;19947;-79
2022/05/15 02:19:13;;;;;;;;;;;12.40;99.90;;;;;;5091810;28;19916;-78
2022/05/15 02:21:38;;;;;;;;;;;12.40;99.90;;;;;;5091386;28;19954;-79
2022/05/15 02:24:04;;;;;;;;;;;12.40;99.90;;;;;;5093174;28;19912;-78
2022/05/15 02:26:30;;;;;;;;;;;12.40;99.90;;;;;;5092425;28;20494;-78
2022/05/15 02:28:55;;;;;;;;;;;12.30;99.90;;;;;;5092774;28;19908;-78
2022/05/15 02:31:21;;;;;;;;;;;12.40;99.90;;;;;;5090936;28;19908;-78
2022/05/15 02:33:46;;;;;;;;;;;12.30;99.90;;;;;;5092869;28;19908;-78
2022/05/15 02:36:12;;;;;;;;;;;12.30;99.90;;;;;;5092052;28;19948;-77
2022/05/15 02:38:38;;;;;;;;;;;12.40;99.90;;;;;;5092812;28;20357;-78
2022/05/15 02:41:03;;;;;;;;;;;12.30;99.90;;;;;;5092549;28;20153;-79
2022/05/15 02:43:29;;;;;;;;;;;12.30;99.90;;;;;;5092253;28;19915;-79
2022/05/15 02:45:55;;;;;;;;;;;12.20;99.90;;;;;;5092508;28;20337;-79
2022/05/15 02:51:05;;;;;;;;;;;12.20;99.90;;;;;;5092465;28;19997;-80
2022/05/15 02:53:35;;;;;;;;;;;12.20;99.90;;;;;;5092158;28;19939;-80
2022/05/15 02:56:02;;;;;;;;;;;12.20;99.90;;;;;;5093151;28;19934;-79
2022/05/15 02:58:28;;;;;;;;;;;12.20;99.90;;;;;;5092105;28;19974;-79
2022/05/15 03:00:55;;;;;;;;;;;12.20;99.90;;;;;;5092432;28;20336;-79
2022/05/15 03:03:21;;;;;;;;;;;12.30;99.90;;;;;;5091720;28;20422;-79
2022/05/15 03:05:46;;;;;;;;;;;12.30;99.90;;;;;;5092610;28;19909;-79
2022/05/15 03:08:12;;;;;;;;;;;12.30;99.90;;;;;;5092383;28;19908;-77
2022/05/15 03:10:38;;;;;;;;;;;12.30;99.90;;;;;;5092061;28;19908;-79
2022/05/15 03:13:03;;;;;;;;;;;12.30;99.90;;;;;;5092258;28;19926;-79
2022/05/15 03:15:29;;;;;;;;;;;12.30;99.90;;;;;;5092129;28;19910;-78
2022/05/15 03:17:54;;;;;;;;;;;12.20;99.90;;;;;;5092199;28;19915;-78
2022/05/15 03:20:20;;;;;;;;;;;12.20;99.90;;;;;;5091467;28;19916;-79
2022/05/15 03:22:46;;;;;;;;;;;12.10;99.90;;;;;;5092368;28;19908;-79
2022/05/15 03:25:11;;;;;;;;;;;12.10;99.90;;;;;;5092787;28;19908;-79
2022/05/15 03:27:37;;;;;;;;;;;12.00;99.90;;;;;;5091497;28;19915;-79
2022/05/15 03:30:05;;;;;;;;;;;12.00;99.90;;;;;;5092074;28;20276;-79
2022/05/15 03:32:30;;;;;;;;;;;12.00;99.90;;;;;;5091664;28;19909;-79
2022/05/15 03:34:56;;;;;;;;;;;11.90;99.90;;;;;;5094276;28;19933;-79
2022/05/15 03:37:22;;;;;;;;;;;11.90;99.90;;;;;;5095237;28;19967;-78
2022/05/15 03:39:47;;;;;;;;;;;11.80;99.90;;;;;;5095495;28;19939;-78
2022/05/15 03:42:13;;;;;;;;;;;11.90;99.90;;;;;;5095856;28;19916;-79
2022/05/15 03:44:38;;;;;;;;;;;11.80;99.90;;;;;;5095309;28;19909;-79
2022/05/15 03:47:07;;;;;;;;;;;11.80;99.90;;;;;;5095764;28;19912;-78
2022/05/15 03:49:32;;;;;;;;;;;11.80;99.90;;;;;;5093838;28;19935;-79
2022/05/15 03:51:58;;;;;;;;;;;11.80;99.90;;;;;;5095233;28;19970;-79
2022/05/15 03:54:23;;;;;;;;;;;11.80;99.90;;;;;;5094974;28;19908;-78
2022/05/15 03:56:52;;;;;;;;;;;11.70;99.90;;;;;;5095128;28;19920;-79
2022/05/15 03:59:23;;;;;;;;;;;11.70;99.90;;;;;;5094576;28;20272;-77
2022/05/15 04:01:48;;;;;;;;;;;11.80;99.90;;;;;;5095585;28;19960;-79
2022/05/15 04:04:14;;;;;;;;;;;11.70;99.90;;;;;;5095347;28;19999;-79
2022/05/15 04:06:39;;;;;;;;;;;11.70;99.90;;;;;;5094581;28;19916;-79
2022/05/15 04:09:05;;;;;;;;;;;11.70;99.90;;;;;;5095203;28;20362;-79
2022/05/15 04:11:31;;;;;;;;;;;11.80;99.90;;;;;;5094539;28;19970;-80
2022/05/15 04:13:56;;;;;;;;;;;11.80;99.90;;;;;;5095595;28;20399;-80
2022/05/15 04:16:22;;;;;;;;;;;11.80;99.90;;;;;;5094677;28;20015;-80
2022/05/15 04:18:47;;;;;;;;;;;11.80;99.90;;;;;;5095083;28;20389;-79
2022/05/15 04:21:13;;;;;;;;;;;11.80;99.90;;;;;;5094879;28;19954;-79
2022/05/15 04:23:39;;;;;;;;;;;11.80;99.90;;;;;;5094551;28;19919;-79
2022/05/15 04:26:05;;;;;;;;;;;11.80;99.90;;;;;;5094990;28;19912;-79
2022/05/15 04:28:31;;;;;;;;;;;11.80;99.90;;;;;;5094423;28;19995;-79
2022/05/15 04:30:56;;;;;;;;;;;11.70;99.90;;;;;;5094797;28;19963;-79
2022/05/15 04:33:22;;;;;;;;;;;11.80;99.90;;;;;;5094371;28;19946;-79
2022/05/15 04:35:47;;;;;;;;;;;11.80;99.90;;;;;;5094924;28;20022;-79
2022/05/15 04:38:13;;;;;;;;;;;11.70;99.90;;;;;;5094386;28;19908;-80
2022/05/15 04:40:38;;;;;;;;;;;11.70;99.90;;;;;;5094085;28;19932;-79
2022/05/15 04:43:04;;;;;;;;;;;11.80;99.90;;;;;;5094608;28;20007;-79
2022/05/15 04:45:30;;;;;;;;;;;11.80;99.90;;;;;;5092805;28;19909;-79
2022/05/15 04:47:55;;;;;;;;;;;11.80;99.90;;;;;;5094089;28;20352;-79
2022/05/15 04:50:21;;;;;;;;;;;11.80;99.90;;;;;;5094230;28;20261;-78
2022/05/15 04:52:47;;;;;;;;;;;11.80;99.90;;;;;;5094229;28;19916;-79
2022/05/15 04:55:13;;;;;;;;;;;11.80;99.90;;;;;;5094535;28;19912;-79
2022/05/15 04:57:39;;;;;;;;;;;11.80;99.90;;;;;;5093729;28;19928;-79
2022/05/15 05:00:07;;;;;;;;;;;11.80;99.90;;;;;;5093783;28;20007;-79
2022/05/15 05:02:33;;;;;;;;;;;11.90;99.90;;;;;;5093088;28;19908;-79
2022/05/15 05:04:59;;;;;;;;;;;11.90;99.90;;;;;;5094278;28;20372;-79
2022/05/15 05:07:28;;;;;;;;;;;12.00;99.90;;;;;;5093379;28;20365;-78
2022/05/15 05:09:53;;;;;;;;;;;12.00;99.90;;;;;;5094045;28;20006;-79
2022/05/15 05:12:19;;;;;;;;;;;12.00;99.90;;;;;;5092629;28;19994;-79
2022/05/15 05:14:45;;;;;;;;;;;12.00;99.90;;;;;;5092133;28;19908;-78
2022/05/15 05:17:10;;;;;;;;;;;12.00;99.90;;;;;;5093886;28;19908;-79
2022/05/15 05:19:36;;;;;;;;;;;12.00;99.90;;;;;;5093401;28;20364;-79
2022/05/15 05:22:02;;;;;;;;;;;12.00;99.90;;;;;;5093713;28;19946;-79
2022/05/15 05:24:27;;;;;;;;;;;12.00;99.90;;;;;;5093220;28;19946;-79
2022/05/15 05:26:53;;;;;;;;;;;12.10;99.90;;;;;;5093644;28;19944;-79
2022/05/15 05:29:18;;;;;;;;;;;12.10;99.90;;;;;;5092545;28;19915;-79
2022/05/15 05:31:44;;;;;;;;;;;12.20;99.90;;;;;;5093064;28;19959;-79
2022/05/15 05:34:10;;;;;;;;;;;12.20;99.90;;;;;;5093944;28;20230;-79
2022/05/15 05:36:35;;;;;;;;;;;12.20;99.90;;;;;;5093205;28;19966;-79
2022/05/15 05:39:01;;;;;;;;;;;12.30;99.90;;;;;;5093513;28;20412;-79
2022/05/15 05:41:27;;;;;;;;;;;12.20;99.90;;;;;;5092786;28;19908;-79
2022/05/15 05:43:52;;;;;;;;;;;12.20;99.90;;;;;;5093552;28;19916;-79
2022/05/15 05:46:18;;;;;;;;;;;12.20;99.90;;;;;;5093711;28;19914;-80
2022/05/15 05:48:46;;;;;;;;;;;12.30;99.90;;;;;;5093132;28;19938;-80
2022/05/15 05:51:12;;;;;;;;;;;12.30;99.90;;;;;;5093393;28;19922;-79
2022/05/15 05:53:38;;;;;;;;;;;12.30;99.90;;;;;;5092440;28;20277;-80
2022/05/15 05:56:04;;;;;;;;;;;12.30;99.90;;;;;;5092825;28;19918;-79
2022/05/15 05:58:29;;;;;;;;;;;12.30;99.90;;;;;;5092476;28;20319;-79
2022/05/15 06:00:55;;;;;;;;;;;12.20;99.90;;;;;;5093430;28;19994;-80
2022/05/15 06:06:04;;;;;;;;;;;12.20;99.90;;;;;;5092887;28;20019;-80
2022/05/15 06:08:31;;;;;;;;;;;12.40;99.90;;;;;;5092338;28;20368;-79
2022/05/15 06:10:57;;;;;;;;;;;12.40;99.90;;;;;;5092684;28;19908;-79
2022/05/15 06:13:23;;;;;;;;;;;12.60;99.90;;;;;;5093255;28;19915;-80
2022/05/15 06:15:49;;;;;;;;;;;12.60;99.90;;;;;;5092560;28;19912;-80
2022/05/15 06:18:14;;;;;;;;;;;12.60;99.90;;;;;;5092780;28;19935;-80
2022/05/15 06:20:40;;;;;;;;;;;12.70;99.90;;;;;;5092366;28;19909;-80
2022/05/15 06:23:05;;;;;;;;;;;12.80;99.90;;;;;;5092635;28;19915;-80
2022/05/15 06:25:31;;;;;;;;;;;12.80;99.90;;;;;;5092323;28;19908;-80
2022/05/15 06:27:57;;;;;;;;;;;12.90;99.90;;;;;;5092924;28;20422;-80
2022/05/15 06:30:23;;;;;;;;;;;12.90;99.90;;;;;;5092941;28;19914;-80
2022/05/15 06:32:48;;;;;;;;;;;12.90;99.90;;;;;;5092316;28;20277;-80
2022/05/15 06:35:15;;;;;;;;;;;13.00;99.90;;;;;;5092308;28;19912;-79
2022/05/15 06:37:40;;;;;;;;;;;13.00;99.90;;;;;;5092268;28;19999;-79
2022/05/15 06:40:07;;;;;;;;;;;13.00;99.90;;;;;;5092593;28;20011;-79
2022/05/15 06:42:34;;;;;;;;;;;12.90;99.90;;;;;;5092444;28;19962;-79
2022/05/15 06:44:59;;;;;;;;;;;13.00;99.90;;;;;;5092966;28;20372;-80
2022/05/15 06:47:25;;;;;;;;;;;13.00;99.90;;;;;;5092902;28;19908;-79
2022/05/15 06:49:51;;;;;;;;;;;13.00;99.90;;;;;;5092196;28;19916;-79
2022/05/15 06:52:17;;;;;;;;;;;13.10;99.90;;;;;;5092747;28;19915;-80
2022/05/15 06:54:42;;;;;;;;;;;13.10;99.90;;;;;;5091947;28;19908;-80
2022/05/15 06:59:52;;;;;;;;;;;13.20;99.90;;;;;;5091822;28;19963;-79
2022/05/15 07:02:18;;;;;;;;;;;13.30;99.90;;;;;;5092748;28;19987;-80
2022/05/15 07:04:44;;;;;;;;;;;13.30;99.90;;;;;;5092026;28;20384;-80
2022/05/15 07:07:09;;;;;;;;;;;13.40;99.90;;;;;;5092715;28;19916;-82
2022/05/15 07:09:35;;;;;;;;;;;13.40;99.90;;;;;;5095478;28;19908;-81
2022/05/15 07:12:02;;;;;;;;;;;13.40;99.90;;;;;;5096467;28;19908;-82
2022/05/15 07:14:28;;;;;;;;;;;13.40;99.90;;;;;;5096441;28;19944;-80
2022/05/15 07:16:54;;;;;;;;;;;13.40;99.90;;;;;;5095852;28;19955;-82
2022/05/15 07:19:19;;;;;;;;;;;13.50;99.90;;;;;;5095983;28;19916;-82
2022/05/15 07:21:45;;;;;;;;;;;13.50;99.90;;;;;;5095907;28;19999;-81
2022/05/15 07:24:11;;;;;;;;;;;13.70;99.90;;;;;;5096526;28;20007;-83
2022/05/15 07:26:42;;;;;;;;;;;13.70;99.90;;;;;;5095517;28;19951;-82
2022/05/15 07:29:07;;;;;;;;;;;13.90;99.90;;;;;;5096210;28;19916;-82
2022/05/15 07:31:33;;;;;;;;;;;13.80;99.90;;;;;;5094177;28;19908;-79
2022/05/15 07:33:58;;;;;;;;;;;13.90;99.90;;;;;;5095929;28;19908;-80
2022/05/15 07:36:24;;;;;;;;;;;13.90;99.90;;;;;;5095980;28;20299;-81
2022/05/15 07:38:50;;;;;;;;;;;13.90;99.90;;;;;;5095211;28;19916;-79
2022/05/15 07:41:15;;;;;;;;;;;14.00;99.90;;;;;;5095670;28;19916;-80
2022/05/15 07:43:41;;;;;;;;;;;14.10;99.90;;;;;;5090036;28;19912;-79
2022/05/15 07:46:07;;;;;;;;;;;14.20;99.90;;;;;;5088009;28;19915;-80
2022/05/15 07:48:32;;;;;;;;;;;14.30;99.90;;;;;;5094664;28;20343;-78
2022/05/15 07:50:58;;;;;;;;;;;14.50;99.90;;;;;;5095470;28;19909;-80
2022/05/15 07:53:24;;;;;;;;;;;14.50;99.90;;;;;;5095468;28;19912;-80
2022/05/15 07:55:50;;;;;;;;;;;14.60;99.90;;;;;;5095082;28;19998;-79
2022/05/15 07:58:16;;;;;;;;;;;14.70;99.90;;;;;;5127696;27;19920;-79
2022/05/15 08:00:41;;;;;;;;;;;15.20;99.90;;;;;;5094648;28;19912;-79
2022/05/15 08:03:08;;;;;;;;;;;15.50;99.90;;;;;;5095229;28;20360;-80
2022/05/15 08:08:18;;;;;;;;;;;15.80;99.90;;;;;;5095324;28;20311;-80
2022/05/15 08:10:44;;;;;;;;;;;15.80;99.90;;;;;;5094710;28;20002;-80
2022/05/15 08:13:12;;;;;;;;;;;15.90;99.90;;;;;;5094733;28;19908;-80
2022/05/15 08:15:38;;;;;;;;;;;16.00;99.90;;;;;;5094703;28;19912;-82
2022/05/15 08:23:40;;;;;;;;;;;16.10;99.90;;;;;;5094460;28;19919;-81
2022/05/15 08:26:06;;;;;;;;;;;16.00;99.90;;;;;;5094299;28;20380;-80
2022/05/15 08:28:33;;;;;;;;;;;16.00;99.90;;;;;;5094952;28;19909;-79
2022/05/15 08:30:59;;;;;;;;;;;15.90;99.90;;;;;;5094039;28;19908;-79
2022/05/15 08:33:26;;;;;;;;;;;15.80;99.90;;;;;;5094721;28;19993;-79
2022/05/15 08:35:52;;;;;;;;;;;15.80;99.90;;;;;;5094094;28;19951;-79
2022/05/15 08:38:18;;;;;;;;;;;15.90;99.90;;;;;;5094773;28;19915;-78
2022/05/15 08:40:50;;;;;;;;;;;15.70;99.90;;;;;;5093981;28;20269;-79
2022/05/15 08:43:20;;;;;;;;;;;15.80;99.90;;;;;;5094386;28;19908;-79
2022/05/15 08:45:54;;;;;;;;;;;15.90;99.90;;;;;;5092396;28;20345;-79
2022/05/15 08:48:19;;;;;;;;;;;16.20;99.90;;;;;;5094494;28;19908;-79
2022/05/15 08:50:48;;;;;;;;;;;16.40;99.90;;;;;;5093528;28;20273;-78
2022/05/15 08:53:19;;;;;;;;;;;16.30;99.90;;;;;;5094077;28;19908;-78
2022/05/15 08:55:47;;;;;;;;;;;16.20;99.90;;;;;;5093679;28;19965;-79
2022/05/15 08:58:22;;;;;;;;;;;16.20;99.90;;;;;;5094182;28;20023;-79
2022/05/15 09:00:51;;;;;;;;;;;16.30;99.90;;;;;;5093497;28;19923;-79
2022/05/15 09:03:18;;;;;;;;;;;16.50;99.90;;;;;;5094007;28;19908;-78
2022/05/15 09:05:50;;;;;;;;;;;16.40;99.90;;;;;;5093154;28;19912;-78
2022/05/15 09:08:42;;;;;;;;;;;16.40;99.90;;;;;;5094092;28;19970;-78
2022/05/15 09:11:09;;;;;;;;;;;16.30;99.90;;;;;;5092593;28;19909;-79
2022/05/15 09:13:37;;;;;;;;;;;16.20;99.90;;;;;;5093829;28;19967;-79
2022/05/15 09:16:04;;;;;;;;;;;15.80;99.90;;;;;;5093294;28;20337;-79
2022/05/15 09:18:33;;;;;;;;;;;15.40;99.90;;;;;;5092576;28;20353;-79
2022/05/15 09:21:07;;;;;;;;;;;15.20;99.90;;;;;;5092894;28;19920;-79
2022/05/15 09:23:35;;;;;;;;;;;15.10;99.90;;;;;;5093330;28;20429;-79
2022/05/15 09:26:06;;;;;;;;;;;14.90;99.90;;;;;;5092973;28;19908;-80
2022/05/15 09:28:41;;;;;;;;;;;15.00;99.90;;;;;;5093525;28;19912;-80
2022/05/15 09:31:18;;;;;;;;;;;15.10;99.90;;;;;;5093542;28;19915;-80
2022/05/15 09:33:47;;;;;;;;;;;15.20;99.90;;;;;;5093065;28;19920;-79
2022/05/15 09:36:32;;;;;;;;;;;15.30;99.90;;;;;;5092165;28;19958;-79
2022/05/15 09:39:06;;;;;;;;;;;15.40;99.90;;;;;;5092803;28;19912;-79
2022/05/15 09:44:23;;;;;;;;;;;15.50;99.90;;;;;;5093077;28;19915;-79
2022/05/15 09:46:55;;;;;;;;;;;15.70;99.90;;;;;;5091385;28;20357;-79
2022/05/15 09:49:24;;;;;;;;;;;15.80;99.90;;;;;;5093259;28;20401;-79
2022/05/15 09:51:54;;;;;;;;;;;16.00;99.90;;;;;;5092924;28;20058;-79
2022/05/15 09:54:37;;;;;;;;;;;16.00;99.90;;;;;;5093455;28;19908;-79
2022/05/15 09:57:08;;;;;;;;;;;16.20;99.90;;;;;;5091988;28;19924;-78
2022/05/15 09:59:34;;;;;;;;;;;16.30;99.90;;;;;;5092856;28;19934;-78
2022/05/15 10:02:02;;;;;;;;;;;16.50;99.90;;;;;;5091402;28;20311;-77
2022/05/15 10:04:47;;;;;;;;;;;16.40;99.90;;;;;;5091696;28;19908;-78
2022/05/15 10:07:27;;;;;;;;;;;16.50;99.90;;;;;;5093142;28;20389;-78
2022/05/15 10:09:53;;;;;;;;;;;16.20;99.90;;;;;;5092164;28;19947;-78
2022/05/15 10:12:29;;;;;;;;;;;16.20;99.90;;;;;;5092627;28;19947;-78
2022/05/15 10:14:56;;;;;;;;;;;16.40;99.90;;;;;;5092646;28;19919;-78
2022/05/15 10:17:23;;;;;;;;;;;16.50;99.90;;;;;;5092960;28;19908;-79
2022/05/15 10:19:55;;;;;;;;;;;16.70;99.90;;;;;;5092276;28;20011;-78
2022/05/15 10:22:24;;;;;;;;;;;16.70;99.90;;;;;;5092763;28;19912;-79
2022/05/15 10:24:50;;;;;;;;;;;16.90;99.90;;;;;;5092140;28;19908;-79
2022/05/15 10:27:20;;;;;;;;;;;16.90;99.90;;;;;;5092619;28;19953;-79
2022/05/15 10:29:49;;;;;;;;;;;17.10;99.90;;;;;;5092329;28;19916;-78
2022/05/15 10:32:17;;;;;;;;;;;17.20;99.90;;;;;;5092396;28;19916;-79
2022/05/15 10:34:43;;;;;;;;;;;17.00;99.90;;;;;;5091872;28;20273;-78
2022/05/15 10:37:15;;;;;;;;;;;16.90;99.90;;;;;;5092259;28;19908;-79
2022/05/15 10:39:50;;;;;;;;;;;16.70;99.90;;;;;;5092613;28;19923;-79
2022/05/15 10:42:32;;;;;;;;;;;16.70;99.90;;;;;;5092564;28;20015;-79
2022/05/15 10:45:01;;;;;;;;;;;16.40;99.90;;;;;;5094879;28;19961;-79
2022/05/15 10:47:30;;;;;;;;;;;16.50;99.90;;;;;;5096758;28;20282;-79
2022/05/15 10:50:00;;;;;;;;;;;16.50;99.90;;;;;;5096088;28;19916;-78
2022/05/15 10:52:38;;;;;;;;;;;16.60;99.90;;;;;;5096954;28;20067;-80
2022/05/15 10:58:17;;;;;;;;;;;17.00;99.90;;;;;;5096253;28;19945;-79
2022/05/15 11:01:21;;;;;;;;;;;17.30;99.90;;;;;;5096469;28;19920;-79
2022/05/15 11:03:46;;;;;;;;;;;17.40;99.90;;;;;;5073035;28;19951;-77
2022/05/15 11:06:18;;;;;;;;;;;17.50;99.90;;;;;;5073816;28;19947;-79
2022/05/15 11:08:50;;;;;;;;;;;17.60;99.90;;;;;;5073674;28;20039;-79
2022/05/15 11:11:21;;;;;;;;;;;17.80;99.90;;;;;;5073695;28;19908;-80
2022/05/15 11:13:54;;;;;;;;;;;17.80;99.90;;;;;;5073308;28;20011;-78
2022/05/15 11:16:40;;;;;;;;;;;17.70;99.90;;;;;;5073662;28;20297;-80
2022/05/15 11:19:09;;;;;;;;;;;17.70;99.90;;;;;;5070789;28;20580;-79
2022/05/15 11:21:43;;;;;;;;;;;17.80;99.90;;;;;;5056821;28;19962;-80
2022/05/15 11:24:11;;;;;;;;;;;17.80;99.90;;;;;;5072632;28;19963;-80
2022/05/15 11:26:45;;;;;;;;;;;17.70;99.90;;;;;;5073466;28;20341;-80
2022/05/15 11:29:14;;;;;;;;;;;17.80;99.90;;;;;;5072777;28;19915;-79
2022/05/15 11:31:44;;;;;;;;;;;17.50;99.90;;;;;;5073044;28;19962;-79
2022/05/15 11:34:10;;;;;;;;;;;17.30;99.90;;;;;;5080606;28;19915;-80
2022/05/15 11:36:41;;;;;;;;;;;17.30;99.90;;;;;;5095659;28;20003;-79
2022/05/15 11:39:22;;;;;;;;;;;17.40;99.90;;;;;;5095165;28;19916;-80
2022/05/15 11:42:08;;;;;;;;;;;17.50;99.90;;;;;;5095546;28;19912;-78
2022/05/15 11:44:34;;;;;;;;;;;17.40;99.90;;;;;;5095404;28;20007;-80
2022/05/15 11:47:00;;;;;;;;;;;17.40;99.90;;;;;;5095398;28;19962;-80
2022/05/15 11:49:32;;;;;;;;;;;17.30;99.90;;;;;;5095640;28;20024;-80
2022/05/15 11:52:04;;;;;;;;;;;17.30;99.90;;;;;;5094874;28;19915;-79
2022/05/15 11:54:31;;;;;;;;;;;17.20;99.90;;;;;;5094256;28;19908;-80
2022/05/15 11:56:57;;;;;;;;;;;17.10;99.90;;;;;;5094740;28;20370;-79
2022/05/15 11:59:27;;;;;;;;;;;17.00;99.90;;;;;;5095234;28;20361;-79
2022/05/15 12:02:22;;;;;;;;;;;16.80;99.90;;;;;;5094200;28;20281;-79
2022/05/15 12:05:02;;;;;;;;;;;16.80;99.90;;;;;;5085816;28;20015;-80
2022/05/15 12:07:30;;;;;;;;;;;17.00;99.90;;;;;;5094962;28;19909;-79
2022/05/15 12:09:56;;;;;;;;;;;17.00;99.90;;;;;;5094464;28;19915;-80
2022/05/15 12:12:30;;;;;;;;;;;17.10;99.90;;;;;;5095203;28;19908;-80
2022/05/15 12:15:10;;;;;;;;;;;17.10;99.90;;;;;;5094159;28;19953;-79
2022/05/15 12:17:59;;;;;;;;;;;17.00;99.90;;;;;;5094866;28;19915;-80
2022/05/15 12:20:28;;;;;;;;;;;16.90;99.90;;;;;;5089038;28;19915;-79
2022/05/15 12:22:54;;;;;;;;;;;16.80;99.90;;;;;;5094361;28;20280;-80
2022/05/15 12:25:23;;;;;;;;;;;16.90;99.90;;;;;;5094581;28;19908;-79
2022/05/15 12:31:03;;;;;;;;;;;17.30;99.90;;;;;;5094287;28;19915;-80
2022/05/15 12:33:30;;;;;;;;;;;17.60;99.90;;;;;;5094793;28;20325;-80
2022/05/15 12:35:57;;;;;;;;;;;17.70;99.90;;;;;;5094025;28;19953;-80
2022/05/15 12:38:24;;;;;;;;;;;17.60;99.90;;;;;;5094275;28;20227;-80
2022/05/15 12:40:52;;;;;;;;;;;17.40;99.90;;;;;;5094496;28;19939;-81
2022/05/15 12:43:25;;;;;;;;;;;17.50;99.90;;;;;;5094592;28;19908;-81
2022/05/15 12:45:50;;;;;;;;;;;17.80;99.90;;;;;;5094155;28;19908;-80
2022/05/15 12:48:17;;;;;;;;;;;17.50;99.90;;;;;;5092090;28;19909;-79
2022/05/15 12:50:47;;;;;;;;;;;17.70;99.90;;;;;;5094164;28;19908;-80
2022/05/15 12:53:18;;;;;;;;;;;17.30;99.90;;;;;;5093374;28;20091;-80
2022/05/15 12:55:44;;;;;;;;;;;17.40;99.90;;;;;;5093773;28;19908;-80
2022/05/15 12:58:09;;;;;;;;;;;17.50;99.90;;;;;;5093689;28;20306;-80
2022/05/15 13:00:37;;;;;;;;;;;17.60;99.90;;;;;;5094069;28;19912;-82
2022/05/15 13:03:04;;;;;;;;;;;17.80;99.90;;;;;;5092432;28;19920;-79
2022/05/15 13:05:32;;;;;;;;;;;17.40;99.90;;;;;;5094182;28;19916;-78
2022/05/15 13:07:59;;;;;;;;;;;17.50;99.90;;;;;;5093327;28;19915;-79
2022/05/15 13:10:25;;;;;;;;;;;17.50;99.90;;;;;;5092376;28;19919;-80
2022/05/15 13:12:51;;;;;;;;;;;17.50;99.90;;;;;;5093551;28;20303;-80
2022/05/15 13:15:19;;;;;;;;;;;17.50;99.90;;;;;;5092934;28;19908;-80
2022/05/15 13:17:45;;;;;;;;;;;17.50;99.90;;;;;;5093623;28;19912;-81
2022/05/15 13:20:15;;;;;;;;;;;17.30;99.90;;;;;;5093140;28;20027;-80
2022/05/15 13:22:41;;;;;;;;;;;17.30;99.90;;;;;;5092177;28;19959;-79
2022/05/15 13:25:12;;;;;;;;;;;17.50;99.90;;;;;;5092258;28;20372;-79
2022/05/15 13:27:41;;;;;;;;;;;17.60;99.90;;;;;;5090354;28;19923;-80
2022/05/15 13:30:11;;;;;;;;;;;17.60;99.90;;;;;;5092357;28;19994;-80
2022/05/15 13:32:37;;;;;;;;;;;17.70;99.90;;;;;;5092535;28;20325;-80
2022/05/15 13:35:07;;;;;;;;;;;17.70;99.90;;;;;;5092455;28;19914;-78
2022/05/15 13:37:34;;;;;;;;;;;17.60;99.90;;;;;;5093194;28;19908;-80
2022/05/15 13:45:31;;;;;;;;;;;17.20;99.90;;;;;;5092414;28;19953;-79
2022/05/15 13:48:01;;;;;;;;;;;17.40;99.90;;;;;;5092203;28;19908;-79
2022/05/15 13:50:31;;;;;;;;;;;17.40;99.90;;;;;;5092671;28;19954;-80
2022/05/15 13:53:15;;;;;;;;;;;17.20;99.90;;;;;;5092005;28;20373;-79
2022/05/15 13:55:41;;;;;;;;;;;17.50;99.90;;;;;;5091284;28;19908;-79
2022/05/15 13:58:07;;;;;;;;;;;17.60;99.90;;;;;;5092103;28;20046;-80
2022/05/15 14:00:33;;;;;;;;;;;17.60;99.90;;;;;;5091274;28;19994;-80
2022/05/15 14:03:01;;;;;;;;;;;17.30;99.90;;;;;;5091147;28;19913;-79
2022/05/15 14:05:28;;;;;;;;;;;17.40;99.90;;;;;;5092271;28;20052;-79
2022/05/15 14:08:07;;;;;;;;;;;17.50;99.90;;;;;;5092157;28;20411;-79
2022/05/15 14:10:34;;;;;;;;;;;17.60;99.90;;;;;;5092396;28;19915;-79
2022/05/15 14:13:02;;;;;;;;;;;17.40;99.90;;;;;;5091915;28;19912;-80
2022/05/15 14:15:45;;;;;;;;;;;17.60;99.90;;;;;;5091045;28;19962;-79
2022/05/15 14:18:19;;;;;;;;;;;17.80;99.90;;;;;;5090872;28;19954;-79
2022/05/15 14:20:47;;;;;;;;;;;17.70;99.90;;;;;;5091112;28;19920;-79
2022/05/15 14:23:13;;;;;;;;;;;17.50;99.90;;;;;;5091622;28;19927;-80
2022/05/15 14:25:41;;;;;;;;;;;17.50;99.90;;;;;;5092196;28;19908;-80
2022/05/15 14:28:08;;;;;;;;;;;17.00;99.90;;;;;;5091842;28;19916;-78
2022/05/15 14:30:34;;;;;;;;;;;17.00;99.90;;;;;;5092317;28;19915;-79
2022/05/15 14:33:01;;;;;;;;;;;17.30;99.90;;;;;;5091223;28;19908;-80
2022/05/15 14:35:32;;;;;;;;;;;17.50;99.90;;;;;;5092347;28;19943;-79
2022/05/15 14:37:58;;;;;;;;;;;17.60;99.90;;;;;;5090425;28;19999;-78
2022/05/15 14:40:23;;;;;;;;;;;17.90;99.90;;;;;;5090740;28;20015;-79
2022/05/15 14:42:49;;;;;;;;;;;17.90;99.90;;;;;;5092091;28;20002;-79
2022/05/15 14:45:19;;;;;;;;;;;18.00;99.90;;;;;;5090394;28;20531;-79
2022/05/15 14:47:51;;;;;;;;;;;17.80;99.90;;;;;;5091682;28;19909;-79
2022/05/15 14:50:17;;;;;;;;;;;17.70;99.90;;;;;;5091445;28;19947;-79
2022/05/15 14:52:46;;;;;;;;;;;17.50;99.90;;;;;;5091821;28;19966;-79